Carol Stream, Illinois
Current Conditions -  °F | °C
As of 11:52 AM on Thursday 30 Oct 2014 (Local Time) from KDPA Reporting Station
Broken Clouds Broken Clouds  
Wind Chill: 44°   Ceiling: 10000
Heat Index: 49°   Visibility: 10mi
Dew Point: 36°   Wind: 13mph
Humidity: 61%   Direction: 220°SW
Pressure: 30.11"   Gusts: NA
Location:  41.92°N, 88.12°W
Report Text: KDPA 301652Z 22011KT 10SM BKN100 BKN120 09/02 A3011 RMK AO2 SLP202 T00940022
Loading
Personal Weather Stations






























Interactive Weather Map
Tropical Storm Tracking
New forecast layout! Learn more

10-Day Weather Forecast

Advertisements
Track Severe Weather on mobile